sensor_id;sensor_type;location;lat;lon;timestamp;P1;durP1;ratioP1;P2;durP2;ratioP2
23394;SDS011;11870;53.084;18.206;2023-04-24T00:00:30;18.45;;;13.65;;
23394;SDS011;11870;53.084;18.206;2023-04-24T00:03:16;23.77;;;14.55;;
23394;SDS011;11870;53.084;18.206;2023-04-24T00:05:46;25.35;;;14.38;;
23394;SDS011;11870;53.084;18.206;2023-04-24T00:08:12;21.92;;;14.30;;
23394;SDS011;11870;53.084;18.206;2023-04-24T00:10:39;21.63;;;13.70;;
23394;SDS011;11870;53.084;18.206;2023-04-24T00:13:05;20.52;;;14.57;;
23394;SDS011;11870;53.084;18.206;2023-04-24T00:15:31;21.55;;;14.10;;
23394;SDS011;11870;53.084;18.206;2023-04-24T00:17:57;23.35;;;15.07;;
23394;SDS011;11870;53.084;18.206;2023-04-24T00:20:24;22.02;;;14.70;;
23394;SDS011;11870;53.084;18.206;2023-04-24T00:22:50;22.98;;;14.25;;
23394;SDS011;11870;53.084;18.206;2023-04-24T00:25:16;20.92;;;14.55;;
23394;SDS011;11870;53.084;18.206;2023-04-24T00:27:42;22.67;;;15.25;;
23394;SDS011;11870;53.084;18.206;2023-04-24T00:30:08;25.05;;;15.13;;
23394;SDS011;11870;53.084;18.206;2023-04-24T00:32:34;23.50;;;14.93;;
23394;SDS011;11870;53.084;18.206;2023-04-24T00:35:03;23.83;;;15.35;;
23394;SDS011;11870;53.084;18.206;2023-04-24T00:37:31;21.33;;;14.45;;
23394;SDS011;11870;53.084;18.206;2023-04-24T00:39:57;22.30;;;15.35;;
23394;SDS011;11870;53.084;18.206;2023-04-24T00:42:23;24.33;;;15.75;;
23394;SDS011;11870;53.084;18.206;2023-04-24T00:44:50;28.33;;;15.95;;
23394;SDS011;11870;53.084;18.206;2023-04-24T00:47:16;23.90;;;15.20;;
23394;SDS011;11870;53.084;18.206;2023-04-24T00:49:45;26.08;;;14.90;;
23394;SDS011;11870;53.084;18.206;2023-04-24T00:52:11;26.88;;;15.65;;
23394;SDS011;11870;53.084;18.206;2023-04-24T00:54:38;28.50;;;15.85;;
23394;SDS011;11870;53.084;18.206;2023-04-24T00:57:04;28.73;;;16.90;;
23394;SDS011;11870;53.084;18.206;2023-04-24T00:59:30;28.45;;;17.23;;
23394;SDS011;11870;53.084;18.206;2023-04-24T01:01:57;25.35;;;16.35;;
23394;SDS011;11870;53.084;18.206;2023-04-24T01:04:26;31.10;;;19.08;;
23394;SDS011;11870;53.084;18.206;2023-04-24T01:06:52;30.00;;;17.83;;
23394;SDS011;11870;53.084;18.206;2023-04-24T01:09:22;28.67;;;16.98;;
23394;SDS011;11870;53.084;18.206;2023-04-24T01:11:49;28.13;;;16.73;;
23394;SDS011;11870;53.084;18.206;2023-04-24T01:14:16;27.70;;;16.08;;
23394;SDS011;11870;53.084;18.206;2023-04-24T01:16:42;24.10;;;15.23;;
23394;SDS011;11870;53.084;18.206;2023-04-24T01:19:08;26.55;;;15.93;;
23394;SDS011;11870;53.084;18.206;2023-04-24T01:21:36;30.48;;;17.02;;
23394;SDS011;11870;53.084;18.206;2023-04-24T01:24:04;30.65;;;18.17;;
23394;SDS011;11870;53.084;18.206;2023-04-24T01:26:31;30.30;;;16.67;;
23394;SDS011;11870;53.084;18.206;2023-04-24T01:28:57;28.92;;;16.58;;
23394;SDS011;11870;53.084;18.206;2023-04-24T01:31:23;33.63;;;17.92;;
23394;SDS011;11870;53.084;18.206;2023-04-24T01:33:50;36.47;;;19.00;;
23394;SDS011;11870;53.084;18.206;2023-04-24T01:36:17;31.02;;;18.67;;
23394;SDS011;11870;53.084;18.206;2023-04-24T01:38:44;36.30;;;18.45;;
23394;SDS011;11870;53.084;18.206;2023-04-24T01:41:10;33.05;;;17.33;;
23394;SDS011;11870;53.084;18.206;2023-04-24T01:43:36;34.78;;;18.20;;
23394;SDS011;11870;53.084;18.206;2023-04-24T01:46:03;31.42;;;17.83;;
23394;SDS011;11870;53.084;18.206;2023-04-24T01:48:30;35.72;;;18.90;;
23394;SDS011;11870;53.084;18.206;2023-04-24T01:51:00;34.45;;;18.23;;
23394;SDS011;11870;53.084;18.206;2023-04-24T01:53:26;37.28;;;19.30;;
23394;SDS011;11870;53.084;18.206;2023-04-24T01:55:52;33.72;;;18.85;;
23394;SDS011;11870;53.084;18.206;2023-04-24T01:58:19;35.83;;;19.27;;
23394;SDS011;11870;53.084;18.206;2023-04-24T02:00:45;36.97;;;19.45;;
23394;SDS011;11870;53.084;18.206;2023-04-24T02:03:14;32.80;;;17.63;;
23394;SDS011;11870;53.084;18.206;2023-04-24T02:05:40;32.53;;;18.50;;
23394;SDS011;11870;53.084;18.206;2023-04-24T02:08:08;35.10;;;18.95;;
23394;SDS011;11870;53.084;18.206;2023-04-24T02:10:34;37.15;;;20.23;;
23394;SDS011;11870;53.084;18.206;2023-04-24T02:13:01;43.70;;;21.70;;
23394;SDS011;11870;53.084;18.206;2023-04-24T02:15:27;39.83;;;20.67;;
23394;SDS011;11870;53.084;18.206;2023-04-24T02:17:53;41.55;;;21.40;;
23394;SDS011;11870;53.084;18.206;2023-04-24T02:20:19;41.50;;;21.15;;
23394;SDS011;11870;53.084;18.206;2023-04-24T02:22:46;37.00;;;19.95;;
23394;SDS011;11870;53.084;18.206;2023-04-24T02:25:12;35.38;;;18.90;;
23394;SDS011;11870;53.084;18.206;2023-04-24T02:27:38;36.55;;;20.02;;
23394;SDS011;11870;53.084;18.206;2023-04-24T02:30:04;37.33;;;20.42;;
23394;SDS011;11870;53.084;18.206;2023-04-24T02:32:31;37.50;;;19.85;;
23394;SDS011;11870;53.084;18.206;2023-04-24T02:34:57;36.65;;;19.73;;
23394;SDS011;11870;53.084;18.206;2023-04-24T02:37:24;35.08;;;19.75;;
23394;SDS011;11870;53.084;18.206;2023-04-24T02:39:51;39.58;;;21.08;;
23394;SDS011;11870;53.084;18.206;2023-04-24T02:42:17;35.28;;;20.17;;
23394;SDS011;11870;53.084;18.206;2023-04-24T02:44:43;35.42;;;19.13;;
23394;SDS011;11870;53.084;18.206;2023-04-24T02:47:09;34.80;;;19.67;;
23394;SDS011;11870;53.084;18.206;2023-04-24T02:49:35;35.78;;;19.55;;
23394;SDS011;11870;53.084;18.206;2023-04-24T02:52:01;32.78;;;19.98;;
23394;SDS011;11870;53.084;18.206;2023-04-24T02:54:27;34.80;;;19.45;;
23394;SDS011;11870;53.084;18.206;2023-04-24T02:56:54;35.30;;;19.10;;
23394;SDS011;11870;53.084;18.206;2023-04-24T02:59:20;36.42;;;20.70;;
23394;SDS011;11870;53.084;18.206;2023-04-24T03:01:46;31.08;;;17.85;;
23394;SDS011;11870;53.084;18.206;2023-04-24T03:04:12;37.58;;;20.48;;
23394;SDS011;11870;53.084;18.206;2023-04-24T03:06:38;33.17;;;18.23;;
23394;SDS011;11870;53.084;18.206;2023-04-24T03:09:04;29.80;;;18.17;;
23394;SDS011;11870;53.084;18.206;2023-04-24T03:11:33;36.10;;;19.13;;
23394;SDS011;11870;53.084;18.206;2023-04-24T03:13:59;34.03;;;18.98;;
23394;SDS011;11870;53.084;18.206;2023-04-24T03:16:25;32.60;;;18.52;;
23394;SDS011;11870;53.084;18.206;2023-04-24T03:18:51;35.58;;;18.92;;
23394;SDS011;11870;53.084;18.206;2023-04-24T03:21:18;40.95;;;21.38;;
23394;SDS011;11870;53.084;18.206;2023-04-24T03:23:44;35.00;;;19.10;;
23394;SDS011;11870;53.084;18.206;2023-04-24T03:26:10;49.42;;;26.90;;
23394;SDS011;11870;53.084;18.206;2023-04-24T03:28:36;40.88;;;23.27;;
23394;SDS011;11870;53.084;18.206;2023-04-24T03:31:06;37.60;;;20.35;;
23394;SDS011;11870;53.084;18.206;2023-04-24T03:33:32;36.97;;;21.02;;
23394;SDS011;11870;53.084;18.206;2023-04-24T03:35:58;39.08;;;19.83;;
23394;SDS011;11870;53.084;18.206;2023-04-24T03:38:24;36.33;;;20.80;;
23394;SDS011;11870;53.084;18.206;2023-04-24T03:40:51;41.75;;;23.17;;
23394;SDS011;11870;53.084;18.206;2023-04-24T03:43:16;45.17;;;26.33;;
23394;SDS011;11870;53.084;18.206;2023-04-24T03:45:45;38.85;;;20.90;;
23394;SDS011;11870;53.084;18.206;2023-04-24T03:48:11;35.25;;;19.67;;
23394;SDS011;11870;53.084;18.206;2023-04-24T03:50:39;35.88;;;19.52;;
23394;SDS011;11870;53.084;18.206;2023-04-24T03:53:05;29.63;;;17.70;;
23394;SDS011;11870;53.084;18.206;2023-04-24T03:55:32;36.58;;;20.30;;
23394;SDS011;11870;53.084;18.206;2023-04-24T03:57:57;39.30;;;21.40;;
23394;SDS011;11870;53.084;18.206;2023-04-24T04:00:28;34.92;;;20.10;;
23394;SDS011;11870;53.084;18.206;2023-04-24T04:02:56;52.45;;;30.08;;
23394;SDS011;11870;53.084;18.206;2023-04-24T04:05:23;51.08;;;30.50;;
23394;SDS011;11870;53.084;18.206;2023-04-24T04:07:48;64.28;;;34.95;;
23394;SDS011;11870;53.084;18.206;2023-04-24T04:10:15;60.15;;;32.28;;
23394;SDS011;11870;53.084;18.206;2023-04-24T04:12:42;48.55;;;27.23;;
23394;SDS011;11870;53.084;18.206;2023-04-24T04:15:09;50.65;;;26.90;;
23394;SDS011;11870;53.084;18.206;2023-04-24T04:17:35;39.42;;;23.25;;
23394;SDS011;11870;53.084;18.206;2023-04-24T04:20:03;34.78;;;21.27;;
23394;SDS011;11870;53.084;18.206;2023-04-24T04:22:37;38.85;;;22.38;;
23394;SDS011;11870;53.084;18.206;2023-04-24T04:25:03;36.67;;;21.20;;
23394;SDS011;11870;53.084;18.206;2023-04-24T04:27:30;36.92;;;20.73;;
23394;SDS011;11870;53.084;18.206;2023-04-24T04:29:58;37.10;;;20.30;;
23394;SDS011;11870;53.084;18.206;2023-04-24T04:32:28;31.55;;;20.95;;
23394;SDS011;11870;53.084;18.206;2023-04-24T04:34:54;35.85;;;21.55;;
23394;SDS011;11870;53.084;18.206;2023-04-24T04:37:20;34.92;;;20.83;;
23394;SDS011;11870;53.084;18.206;2023-04-24T04:39:47;35.75;;;20.85;;
23394;SDS011;11870;53.084;18.206;2023-04-24T04:42:13;33.50;;;18.85;;
23394;SDS011;11870;53.084;18.206;2023-04-24T04:44:39;33.25;;;19.95;;
23394;SDS011;11870;53.084;18.206;2023-04-24T04:47:05;32.38;;;19.73;;
23394;SDS011;11870;53.084;18.206;2023-04-24T04:49:33;30.88;;;19.23;;
23394;SDS011;11870;53.084;18.206;2023-04-24T04:51:59;32.22;;;19.45;;
23394;SDS011;11870;53.084;18.206;2023-04-24T04:54:26;32.13;;;19.80;;
23394;SDS011;11870;53.084;18.206;2023-04-24T04:56:54;37.58;;;20.60;;
23394;SDS011;11870;53.084;18.206;2023-04-24T04:59:22;31.92;;;17.98;;
23394;SDS011;11870;53.084;18.206;2023-04-24T05:01:49;29.67;;;17.48;;
23394;SDS011;11870;53.084;18.206;2023-04-24T05:04:15;30.52;;;17.90;;
23394;SDS011;11870;53.084;18.206;2023-04-24T05:06:41;28.92;;;17.75;;
23394;SDS011;11870;53.084;18.206;2023-04-24T05:09:08;31.55;;;18.60;;
23394;SDS011;11870;53.084;18.206;2023-04-24T05:11:42;36.55;;;18.42;;
23394;SDS011;11870;53.084;18.206;2023-04-24T05:14:11;29.10;;;18.40;;
23394;SDS011;11870;53.084;18.206;2023-04-24T05:16:40;25.88;;;16.20;;
23394;SDS011;11870;53.084;18.206;2023-04-24T05:19:07;25.88;;;16.13;;
23394;SDS011;11870;53.084;18.206;2023-04-24T05:21:37;26.98;;;15.57;;
23394;SDS011;11870;53.084;18.206;2023-04-24T05:24:05;29.55;;;14.18;;
23394;SDS011;11870;53.084;18.206;2023-04-24T05:26:31;20.23;;;14.10;;
23394;SDS011;11870;53.084;18.206;2023-04-24T05:28:59;20.15;;;13.65;;
23394;SDS011;11870;53.084;18.206;2023-04-24T05:31:25;20.55;;;13.77;;
23394;SDS011;11870;53.084;18.206;2023-04-24T05:33:52;20.15;;;13.70;;
23394;SDS011;11870;53.084;18.206;2023-04-24T05:36:18;22.60;;;14.20;;
23394;SDS011;11870;53.084;18.206;2023-04-24T05:38:44;22.75;;;14.25;;
23394;SDS011;11870;53.084;18.206;2023-04-24T05:41:10;23.02;;;13.77;;
23394;SDS011;11870;53.084;18.206;2023-04-24T05:43:36;21.95;;;13.75;;
23394;SDS011;11870;53.084;18.206;2023-04-24T05:46:01;21.88;;;13.93;;
23394;SDS011;11870;53.084;18.206;2023-04-24T05:48:28;19.85;;;12.73;;
23394;SDS011;11870;53.084;18.206;2023-04-24T05:50:53;19.70;;;13.40;;
23394;SDS011;11870;53.084;18.206;2023-04-24T05:53:20;19.08;;;12.95;;
23394;SDS011;11870;53.084;18.206;2023-04-24T05:55:46;20.08;;;13.43;;
23394;SDS011;11870;53.084;18.206;2023-04-24T05:58:12;20.05;;;12.57;;
23394;SDS011;11870;53.084;18.206;2023-04-24T06:00:39;19.50;;;13.05;;
23394;SDS011;11870;53.084;18.206;2023-04-24T06:03:08;21.73;;;12.00;;
23394;SDS011;11870;53.084;18.206;2023-04-24T06:05:33;20.15;;;11.63;;
23394;SDS011;11870;53.084;18.206;2023-04-24T06:08:00;15.65;;;10.70;;
23394;SDS011;11870;53.084;18.206;2023-04-24T06:10:26;15.98;;;10.68;;
23394;SDS011;11870;53.084;18.206;2023-04-24T06:12:53;15.98;;;10.73;;
23394;SDS011;11870;53.084;18.206;2023-04-24T06:15:21;17.05;;;11.05;;
23394;SDS011;11870;53.084;18.206;2023-04-24T06:17:47;19.08;;;12.20;;
23394;SDS011;11870;53.084;18.206;2023-04-24T06:20:13;15.20;;;11.05;;
23394;SDS011;11870;53.084;18.206;2023-04-24T06:22:39;14.95;;;9.95;;
23394;SDS011;11870;53.084;18.206;2023-04-24T06:25:05;18.00;;;11.40;;
23394;SDS011;11870;53.084;18.206;2023-04-24T06:27:36;26.40;;;14.50;;
23394;SDS011;11870;53.084;18.206;2023-04-24T06:30:02;26.35;;;17.48;;
23394;SDS011;11870;53.084;18.206;2023-04-24T06:32:28;27.98;;;19.30;;
23394;SDS011;11870;53.084;18.206;2023-04-24T06:34:56;41.47;;;23.08;;
23394;SDS011;11870;53.084;18.206;2023-04-24T06:37:22;35.63;;;24.27;;
23394;SDS011;11870;53.084;18.206;2023-04-24T06:39:48;22.40;;;14.70;;
23394;SDS011;11870;53.084;18.206;2023-04-24T06:42:14;18.85;;;12.15;;
23394;SDS011;11870;53.084;18.206;2023-04-24T06:44:40;20.25;;;12.52;;
23394;SDS011;11870;53.084;18.206;2023-04-24T06:47:06;18.60;;;11.98;;
23394;SDS011;11870;53.084;18.206;2023-04-24T06:49:38;18.25;;;10.90;;
23394;SDS011;11870;53.084;18.206;2023-04-24T06:52:05;17.15;;;10.63;;
23394;SDS011;11870;53.084;18.206;2023-04-24T06:54:32;15.07;;;9.85;;
23394;SDS011;11870;53.084;18.206;2023-04-24T06:56:58;18.05;;;10.40;;
23394;SDS011;11870;53.084;18.206;2023-04-24T06:59:26;15.45;;;10.75;;
23394;SDS011;11870;53.084;18.206;2023-04-24T07:01:53;16.60;;;11.02;;
23394;SDS011;11870;53.084;18.206;2023-04-24T07:04:19;15.70;;;10.45;;
23394;SDS011;11870;53.084;18.206;2023-04-24T07:06:47;20.00;;;10.68;;
23394;SDS011;11870;53.084;18.206;2023-04-24T07:09:14;15.95;;;10.13;;
23394;SDS011;11870;53.084;18.206;2023-04-24T07:11:44;21.52;;;11.27;;
23394;SDS011;11870;53.084;18.206;2023-04-24T07:14:10;19.15;;;11.45;;
23394;SDS011;11870;53.084;18.206;2023-04-24T07:16:37;18.67;;;11.50;;
23394;SDS011;11870;53.084;18.206;2023-04-24T07:19:04;20.75;;;11.45;;
23394;SDS011;11870;53.084;18.206;2023-04-24T07:21:30;18.73;;;11.95;;
23394;SDS011;11870;53.084;18.206;2023-04-24T07:23:57;17.75;;;10.65;;
23394;SDS011;11870;53.084;18.206;2023-04-24T07:26:24;17.15;;;11.00;;
23394;SDS011;11870;53.084;18.206;2023-04-24T07:28:51;17.05;;;10.18;;
23394;SDS011;11870;53.084;18.206;2023-04-24T07:31:22;17.92;;;10.48;;
23394;SDS011;11870;53.084;18.206;2023-04-24T07:33:49;13.93;;;9.07;;
23394;SDS011;11870;53.084;18.206;2023-04-24T07:36:16;15.45;;;9.60;;
23394;SDS011;11870;53.084;18.206;2023-04-24T07:38:47;13.57;;;8.48;;
23394;SDS011;11870;53.084;18.206;2023-04-24T07:41:13;13.73;;;9.63;;
23394;SDS011;11870;53.084;18.206;2023-04-24T07:43:40;14.10;;;9.15;;
23394;SDS011;11870;53.084;18.206;2023-04-24T07:46:07;13.82;;;9.10;;
23394;SDS011;11870;53.084;18.206;2023-04-24T07:48:33;14.18;;;9.70;;
23394;SDS011;11870;53.084;18.206;2023-04-24T07:50:59;14.10;;;9.13;;
23394;SDS011;11870;53.084;18.206;2023-04-24T07:53:25;13.55;;;8.80;;
23394;SDS011;11870;53.084;18.206;2023-04-24T07:55:51;14.40;;;9.07;;
23394;SDS011;11870;53.084;18.206;2023-04-24T07:58:19;13.35;;;8.95;;
23394;SDS011;11870;53.084;18.206;2023-04-24T08:00:45;14.85;;;8.45;;
23394;SDS011;11870;53.084;18.206;2023-04-24T08:03:11;13.55;;;8.27;;
23394;SDS011;11870;53.084;18.206;2023-04-24T08:05:38;12.88;;;7.93;;
23394;SDS011;11870;53.084;18.206;2023-04-24T08:08:04;10.90;;;7.70;;
23394;SDS011;11870;53.084;18.206;2023-04-24T08:10:30;10.40;;;7.32;;
23394;SDS011;11870;53.084;18.206;2023-04-24T08:12:56;8.15;;;6.68;;
23394;SDS011;11870;53.084;18.206;2023-04-24T08:15:25;11.23;;;6.38;;
23394;SDS011;11870;53.084;18.206;2023-04-24T08:17:52;11.07;;;6.25;;
23394;SDS011;11870;53.084;18.206;2023-04-24T08:20:18;8.93;;;6.38;;
23394;SDS011;11870;53.084;18.206;2023-04-24T08:22:44;9.48;;;6.50;;
23394;SDS011;11870;53.084;18.206;2023-04-24T08:25:12;8.60;;;6.25;;
23394;SDS011;11870;53.084;18.206;2023-04-24T08:27:38;10.75;;;8.10;;
23394;SDS011;11870;53.084;18.206;2023-04-24T08:30:05;11.13;;;8.25;;
23394;SDS011;11870;53.084;18.206;2023-04-24T08:32:32;9.23;;;6.57;;
23394;SDS011;11870;53.084;18.206;2023-04-24T08:34:58;9.50;;;6.60;;
23394;SDS011;11870;53.084;18.206;2023-04-24T08:37:25;13.40;;;6.75;;
23394;SDS011;11870;53.084;18.206;2023-04-24T08:39:53;10.30;;;6.53;;
23394;SDS011;11870;53.084;18.206;2023-04-24T08:42:19;8.23;;;6.68;;
23394;SDS011;11870;53.084;18.206;2023-04-24T08:44:47;11.48;;;6.40;;
23394;SDS011;11870;53.084;18.206;2023-04-24T08:47:14;10.13;;;6.70;;
23394;SDS011;11870;53.084;18.206;2023-04-24T08:49:44;10.70;;;6.95;;
23394;SDS011;11870;53.084;18.206;2023-04-24T08:52:13;8.68;;;7.05;;
23394;SDS011;11870;53.084;18.206;2023-04-24T08:54:39;13.02;;;7.38;;
23394;SDS011;11870;53.084;18.206;2023-04-24T08:57:10;8.82;;;6.30;;
23394;SDS011;11870;53.084;18.206;2023-04-24T08:59:39;9.65;;;6.78;;
23394;SDS011;11870;53.084;18.206;2023-04-24T09:02:06;11.60;;;6.82;;
23394;SDS011;11870;53.084;18.206;2023-04-24T09:04:37;8.18;;;6.78;;
23394;SDS011;11870;53.084;18.206;2023-04-24T09:07:06;8.68;;;6.20;;
23394;SDS011;11870;53.084;18.206;2023-04-24T09:09:32;11.23;;;6.75;;
23394;SDS011;11870;53.084;18.206;2023-04-24T09:11:58;9.98;;;6.60;;
23394;SDS011;11870;53.084;18.206;2023-04-24T09:14:26;14.55;;;7.13;;
23394;SDS011;11870;53.084;18.206;2023-04-24T09:16:53;10.18;;;6.20;;
23394;SDS011;11870;53.084;18.206;2023-04-24T09:19:22;12.68;;;7.32;;
23394;SDS011;11870;53.084;18.206;2023-04-24T09:21:48;10.77;;;6.82;;
23394;SDS011;11870;53.084;18.206;2023-04-24T09:24:15;9.93;;;7.07;;
23394;SDS011;11870;53.084;18.206;2023-04-24T09:26:43;8.63;;;6.72;;
23394;SDS011;11870;53.084;18.206;2023-04-24T09:29:14;8.80;;;6.70;;
23394;SDS011;11870;53.084;18.206;2023-04-24T09:31:44;8.18;;;6.30;;
23394;SDS011;11870;53.084;18.206;2023-04-24T09:34:11;10.60;;;6.53;;
23394;SDS011;11870;53.084;18.206;2023-04-24T09:36:38;10.45;;;6.78;;
23394;SDS011;11870;53.084;18.206;2023-04-24T09:39:10;9.60;;;6.43;;
23394;SDS011;11870;53.084;18.206;2023-04-24T09:41:47;7.78;;;6.20;;
23394;SDS011;11870;53.084;18.206;2023-04-24T09:44:19;11.27;;;6.25;;
23394;SDS011;11870;53.084;18.206;2023-04-24T09:46:51;7.45;;;5.95;;
23394;SDS011;11870;53.084;18.206;2023-04-24T09:49:22;9.02;;;5.80;;
23394;SDS011;11870;53.084;18.206;2023-04-24T09:51:50;8.15;;;5.45;;
23394;SDS011;11870;53.084;18.206;2023-04-24T09:54:17;7.75;;;5.50;;
23394;SDS011;11870;53.084;18.206;2023-04-24T09:56:50;8.90;;;5.10;;
23394;SDS011;11870;53.084;18.206;2023-04-24T09:59:17;8.88;;;5.07;;
23394;SDS011;11870;53.084;18.206;2023-04-24T10:01:44;6.95;;;4.97;;
23394;SDS011;11870;53.084;18.206;2023-04-24T10:04:18;7.28;;;5.40;;
23394;SDS011;11870;53.084;18.206;2023-04-24T10:06:49;7.47;;;4.68;;
23394;SDS011;11870;53.084;18.206;2023-04-24T10:09:21;5.90;;;5.22;;
23394;SDS011;11870;53.084;18.206;2023-04-24T10:11:50;6.97;;;5.05;;
23394;SDS011;11870;53.084;18.206;2023-04-24T10:14:18;6.07;;;4.93;;
23394;SDS011;11870;53.084;18.206;2023-04-24T10:16:48;7.03;;;5.03;;
23394;SDS011;11870;53.084;18.206;2023-04-24T10:19:16;9.35;;;5.70;;
23394;SDS011;11870;53.084;18.206;2023-04-24T10:21:44;7.57;;;5.20;;
23394;SDS011;11870;53.084;18.206;2023-04-24T10:24:16;9.05;;;5.60;;
23394;SDS011;11870;53.084;18.206;2023-04-24T10:26:43;7.20;;;5.30;;
23394;SDS011;11870;53.084;18.206;2023-04-24T10:29:15;10.68;;;5.55;;
23394;SDS011;11870;53.084;18.206;2023-04-24T10:31:42;12.05;;;5.00;;
23394;SDS011;11870;53.084;18.206;2023-04-24T10:34:12;7.22;;;5.45;;
23394;SDS011;11870;53.084;18.206;2023-04-24T10:36:40;7.47;;;5.68;;
23394;SDS011;11870;53.084;18.206;2023-04-24T10:39:14;7.60;;;5.72;;
23394;SDS011;11870;53.084;18.206;2023-04-24T10:41:41;9.63;;;6.65;;
23394;SDS011;11870;53.084;18.206;2023-04-24T10:46:35;10.45;;;7.60;;
23394;SDS011;11870;53.084;18.206;2023-04-24T10:49:05;11.23;;;7.53;;
23394;SDS011;11870;53.084;18.206;2023-04-24T10:51:51;13.68;;;7.47;;
23394;SDS011;11870;53.084;18.206;2023-04-24T10:59:47;10.73;;;7.20;;
23394;SDS011;11870;53.084;18.206;2023-04-24T11:02:17;9.57;;;7.10;;
23394;SDS011;11870;53.084;18.206;2023-04-24T11:04:44;9.18;;;7.20;;
23394;SDS011;11870;53.084;18.206;2023-04-24T11:07:19;11.70;;;8.18;;
23394;SDS011;11870;53.084;18.206;2023-04-24T11:09:46;15.80;;;11.02;;
23394;SDS011;11870;53.084;18.206;2023-04-24T11:12:29;13.27;;;8.38;;
23394;SDS011;11870;53.084;18.206;2023-04-24T11:17:31;13.85;;;8.13;;
23394;SDS011;11870;53.084;18.206;2023-04-24T11:22:37;13.02;;;7.45;;
23394;SDS011;11870;53.084;18.206;2023-04-24T11:25:08;10.73;;;7.63;;
23394;SDS011;11870;53.084;18.206;2023-04-24T11:27:43;9.15;;;6.80;;
23394;SDS011;11870;53.084;18.206;2023-04-24T11:30:16;10.07;;;7.20;;
23394;SDS011;11870;53.084;18.206;2023-04-24T11:32:46;11.98;;;7.35;;
23394;SDS011;11870;53.084;18.206;2023-04-24T11:35:19;11.23;;;8.05;;
23394;SDS011;11870;53.084;18.206;2023-04-24T11:37:51;11.38;;;8.43;;
23394;SDS011;11870;53.084;18.206;2023-04-24T11:40:22;20.83;;;9.77;;
23394;SDS011;11870;53.084;18.206;2023-04-24T11:42:48;12.70;;;8.25;;
23394;SDS011;11870;53.084;18.206;2023-04-24T11:45:17;10.73;;;7.57;;
23394;SDS011;11870;53.084;18.206;2023-04-24T11:47:47;13.40;;;8.32;;
23394;SDS011;11870;53.084;18.206;2023-04-24T11:50:15;13.07;;;8.63;;
23394;SDS011;11870;53.084;18.206;2023-04-24T11:52:44;12.10;;;9.15;;
23394;SDS011;11870;53.084;18.206;2023-04-24T11:57:43;13.57;;;8.88;;
23394;SDS011;11870;53.084;18.206;2023-04-24T12:00:19;12.30;;;9.05;;
23394;SDS011;11870;53.084;18.206;2023-04-24T12:02:48;15.32;;;9.63;;
23394;SDS011;11870;53.084;18.206;2023-04-24T12:05:19;11.30;;;9.85;;
23394;SDS011;11870;53.084;18.206;2023-04-24T12:07:46;18.17;;;11.07;;
23394;SDS011;11870;53.084;18.206;2023-04-24T12:10:12;10.82;;;8.90;;
23394;SDS011;11870;53.084;18.206;2023-04-24T12:12:39;10.90;;;8.32;;
23394;SDS011;11870;53.084;18.206;2023-04-24T12:15:06;10.77;;;7.85;;
23394;SDS011;11870;53.084;18.206;2023-04-24T12:17:33;12.77;;;9.10;;
23394;SDS011;11870;53.084;18.206;2023-04-24T12:20:01;13.25;;;9.13;;
23394;SDS011;11870;53.084;18.206;2023-04-24T12:22:42;12.52;;;7.90;;
23394;SDS011;11870;53.084;18.206;2023-04-24T12:25:12;13.70;;;8.38;;
23394;SDS011;11870;53.084;18.206;2023-04-24T12:27:45;10.30;;;7.68;;
23394;SDS011;11870;53.084;18.206;2023-04-24T12:30:16;9.98;;;7.70;;
23394;SDS011;11870;53.084;18.206;2023-04-24T12:32:46;9.43;;;6.88;;
23394;SDS011;11870;53.084;18.206;2023-04-24T12:35:14;12.38;;;7.15;;
23394;SDS011;11870;53.084;18.206;2023-04-24T12:37:45;9.95;;;6.25;;
23394;SDS011;11870;53.084;18.206;2023-04-24T12:40:12;7.47;;;5.60;;
23394;SDS011;11870;53.084;18.206;2023-04-24T12:42:49;8.07;;;5.97;;
23394;SDS011;11870;53.084;18.206;2023-04-24T12:45:33;7.10;;;4.47;;
23394;SDS011;11870;53.084;18.206;2023-04-24T12:48:05;6.45;;;4.53;;
23394;SDS011;11870;53.084;18.206;2023-04-24T12:50:39;6.47;;;4.95;;
23394;SDS011;11870;53.084;18.206;2023-04-24T12:53:07;9.27;;;4.43;;
23394;SDS011;11870;53.084;18.206;2023-04-24T12:55:34;6.82;;;4.15;;
23394;SDS011;11870;53.084;18.206;2023-04-24T12:58:01;5.82;;;3.95;;
23394;SDS011;11870;53.084;18.206;2023-04-24T13:00:33;5.53;;;4.20;;
23394;SDS011;11870;53.084;18.206;2023-04-24T13:02:59;7.72;;;4.38;;
23394;SDS011;11870;53.084;18.206;2023-04-24T13:05:26;5.35;;;4.43;;
23394;SDS011;11870;53.084;18.206;2023-04-24T13:07:53;6.70;;;4.43;;
23394;SDS011;11870;53.084;18.206;2023-04-24T13:10:18;7.50;;;4.55;;
23394;SDS011;11870;53.084;18.206;2023-04-24T13:12:45;6.75;;;4.45;;
23394;SDS011;11870;53.084;18.206;2023-04-24T13:15:11;7.95;;;4.15;;
23394;SDS011;11870;53.084;18.206;2023-04-24T13:17:37;4.70;;;3.58;;
23394;SDS011;11870;53.084;18.206;2023-04-24T13:20:03;6.15;;;4.03;;
23394;SDS011;11870;53.084;18.206;2023-04-24T13:22:30;10.85;;;4.97;;
23394;SDS011;11870;53.084;18.206;2023-04-24T13:24:56;8.40;;;4.20;;
23394;SDS011;11870;53.084;18.206;2023-04-24T13:27:26;6.95;;;4.38;;
23394;SDS011;11870;53.084;18.206;2023-04-24T13:29:52;6.10;;;4.13;;
23394;SDS011;11870;53.084;18.206;2023-04-24T13:32:18;5.40;;;4.05;;
23394;SDS011;11870;53.084;18.206;2023-04-24T13:34:44;7.43;;;4.60;;
23394;SDS011;11870;53.084;18.206;2023-04-24T13:37:10;5.72;;;4.13;;
23394;SDS011;11870;53.084;18.206;2023-04-24T13:39:36;5.30;;;4.13;;
23394;SDS011;11870;53.084;18.206;2023-04-24T13:42:03;7.75;;;4.50;;
23394;SDS011;11870;53.084;18.206;2023-04-24T13:44:29;7.63;;;4.90;;
23394;SDS011;11870;53.084;18.206;2023-04-24T13:46:56;6.68;;;5.43;;
23394;SDS011;11870;53.084;18.206;2023-04-24T13:49:23;8.23;;;5.90;;
23394;SDS011;11870;53.084;18.206;2023-04-24T13:51:51;7.22;;;5.38;;
23394;SDS011;11870;53.084;18.206;2023-04-24T13:54:17;9.93;;;6.03;;
23394;SDS011;11870;53.084;18.206;2023-04-24T13:56:44;10.65;;;5.93;;
23394;SDS011;11870;53.084;18.206;2023-04-24T13:59:11;9.50;;;6.38;;
23394;SDS011;11870;53.084;18.206;2023-04-24T14:01:38;8.68;;;6.72;;
23394;SDS011;11870;53.084;18.206;2023-04-24T14:04:04;11.68;;;7.05;;
23394;SDS011;11870;53.084;18.206;2023-04-24T14:06:31;10.82;;;7.55;;
23394;SDS011;11870;53.084;18.206;2023-04-24T14:08:57;10.95;;;7.47;;
23394;SDS011;11870;53.084;18.206;2023-04-24T14:11:29;10.77;;;7.50;;
23394;SDS011;11870;53.084;18.206;2023-04-24T14:13:56;15.13;;;7.28;;
23394;SDS011;11870;53.084;18.206;2023-04-24T14:16:23;8.23;;;5.90;;
23394;SDS011;11870;53.084;18.206;2023-04-24T14:18:51;7.72;;;5.03;;
23394;SDS011;11870;53.084;18.206;2023-04-24T14:21:17;5.68;;;4.32;;
23394;SDS011;11870;53.084;18.206;2023-04-24T14:23:43;7.65;;;4.70;;
23394;SDS011;11870;53.084;18.206;2023-04-24T14:26:11;6.65;;;4.80;;
23394;SDS011;11870;53.084;18.206;2023-04-24T14:28:37;7.03;;;4.32;;
23394;SDS011;11870;53.084;18.206;2023-04-24T14:31:03;5.60;;;4.25;;
23394;SDS011;11870;53.084;18.206;2023-04-24T14:33:29;8.63;;;4.53;;
23394;SDS011;11870;53.084;18.206;2023-04-24T14:35:56;9.55;;;4.47;;